MMMY/MTY METAR and TAF weather

Enter ICAO airport designator
Station Type Date Time Source
MMMY METAR 2022/08/16 19:41 UTC NOAA

MMMY 161941Z 11010KT 6SM SCT030 BKN200 33/21 A2987 RMK 8/508 HZY ISOL AC


Station Type Date Time Source
MMMY Decoded METAR 2022/08/16 19:41 UTC NOAA

Monterrey / Gen Maria, Mexico (MMMY) 25-47N 100-06W
Aug 16, 2022 - 03:41 PM EDT / 2022.08.16 1941 UTC
Wind: from the ESE (110 degrees) at 12 MPH (10 KT):0
Visibility: 6 mile(s):0
Sky conditions: mostly cloudy
Temperature: 91 F (33 C)
Heat index: 96.1 F (35.6 C):1
Dew Point: 69 F (21 C)
Relative Humidity: 49%
Pressure (altimeter): 29.87 in. Hg (1011 hPa)
ob: MMMY 161941Z 11010KT 6SM SCT030 BKN200 33/21 A2987 RMK 8/508 HZY ISOL AC
cycle: 19

Station Type Date Time Source
MMMY TAF 2022/08/16 18:30 UTC NOAA

TAF MMMY 161721Z 1618/1724 13008KT 6SM HZ SCT030 BKN080 BKN250 TX33/1622Z TN24/1712Z
FM170300 09005KT 6SM -RA BKN020 BKN080
TEMPO 1706/1710 4SM TSRA BKN020CB
FM171000 00000KT 5SM HZ SCT010 BKN080
TEMPO 1711/1715 3SM BR BKN010
FM171800 12008KT P6SM SCT030 BKN080 BKN250 PROB40 1721/1724 6SM -RA BKN030

Example: see airport list